Kalkaska, Michigan
Current Conditions -  °F | °C
As of 1:15 AM on Thursday 29 Jan 2015 (Local Time) from KACB Reporting Station
Overcast Overcast  
Wind Chill: 23°   Ceiling: 8000
Heat Index: 30°   Visibility: 10mi
Dew Point: 11°   Wind: 7mph
Humidity: 45%   Direction: 160°SSE
Pressure: 29.92"   Gusts: NA
Location:  44.73°N, 85.18°W
Report Text: KACB 290615Z AUTO 16006KT 10SM OVC080 M01/M12 A2992 RMK AO2 T10111118
Loading
Personal Weather Stations






























Interactive Weather Map New forecast layout! Learn more

10-Day Weather Forecast

Advertisements
Track Severe Weather on mobile